sensor_id;sensor_type;location;lat;lon;timestamp;pressure;altitude;pressure_sealevel;temperature;humidity
10806;BME280;5455;53.224;6.000;2023-05-22T00:01:24;101608.16;;;16.68;100.00
10806;BME280;5455;53.224;6.000;2023-05-22T00:03:55;101600.59;;;16.69;100.00
10806;BME280;5455;53.224;6.000;2023-05-22T00:06:23;101597.41;;;16.67;100.00
10806;BME280;5455;53.224;6.000;2023-05-22T00:08:50;101598.56;;;16.66;100.00
10806;BME280;5455;53.224;6.000;2023-05-22T00:11:17;101594.63;;;16.67;100.00
10806;BME280;5455;53.224;6.000;2023-05-22T00:13:44;101604.56;;;16.68;100.00
10806;BME280;5455;53.224;6.000;2023-05-22T00:16:11;101616.13;;;16.70;100.00
10806;BME280;5455;53.224;6.000;2023-05-22T00:18:38;101632.06;;;16.73;100.00
10806;BME280;5455;53.224;6.000;2023-05-22T00:21:08;101639.31;;;16.81;100.00
10806;BME280;5455;53.224;6.000;2023-05-22T00:23:36;101641.72;;;16.82;100.00
10806;BME280;5455;53.224;6.000;2023-05-22T00:26:03;101642.59;;;16.90;100.00
10806;BME280;5455;53.224;6.000;2023-05-22T00:28:30;101652.56;;;16.94;100.00
10806;BME280;5455;53.224;6.000;2023-05-22T00:30:57;101635.09;;;16.97;100.00
10806;BME280;5455;53.224;6.000;2023-05-22T00:33:24;101646.28;;;17.01;100.00
10806;BME280;5455;53.224;6.000;2023-05-22T00:35:51;101631.59;;;17.04;100.00
10806;BME280;5455;53.224;6.000;2023-05-22T00:38:29;101632.78;;;17.06;100.00
10806;BME280;5455;53.224;6.000;2023-05-22T00:40:59;101623.66;;;17.06;100.00
10806;BME280;5455;53.224;6.000;2023-05-22T00:43:26;101610.91;;;17.05;100.00
10806;BME280;5455;53.224;6.000;2023-05-22T00:45:55;101616.06;;;17.03;100.00
10806;BME280;5455;53.224;6.000;2023-05-22T00:48:23;101616.84;;;17.03;100.00
10806;BME280;5455;53.224;6.000;2023-05-22T00:50:53;101621.63;;;17.03;100.00
10806;BME280;5455;53.224;6.000;2023-05-22T00:53:23;101614.44;;;17.02;100.00
10806;BME280;5455;53.224;6.000;2023-05-22T00:55:52;101605.25;;;16.98;100.00
10806;BME280;5455;53.224;6.000;2023-05-22T00:58:20;101598.06;;;16.93;100.00
10806;BME280;5455;53.224;6.000;2023-05-22T01:00:47;101599.63;;;16.91;100.00
10806;BME280;5455;53.224;6.000;2023-05-22T01:03:15;101602.44;;;16.94;100.00
10806;BME280;5455;53.224;6.000;2023-05-22T01:05:44;101602.47;;;16.98;100.00
10806;BME280;5455;53.224;6.000;2023-05-22T01:08:11;101591.34;;;17.01;100.00
10806;BME280;5455;53.224;6.000;2023-05-22T01:10:38;101591.41;;;17.05;100.00
10806;BME280;5455;53.224;6.000;2023-05-22T01:16:00;101592.16;;;17.02;100.00
10806;BME280;5455;53.224;6.000;2023-05-22T01:18:45;101591.34;;;17.01;100.00
10806;BME280;5455;53.224;6.000;2023-05-22T01:21:22;101600.94;;;17.04;100.00
10806;BME280;5455;53.224;6.000;2023-05-22T01:24:02;101600.16;;;17.07;100.00
10806;BME280;5455;53.224;6.000;2023-05-22T01:29:14;101573.50;;;17.09;100.00
10806;BME280;5455;53.224;6.000;2023-05-22T01:31:47;101558.78;;;17.09;100.00
10806;BME280;5455;53.224;6.000;2023-05-22T01:34:16;101536.84;;;17.04;100.00
10806;BME280;5455;53.224;6.000;2023-05-22T01:36:45;101542.38;;;17.00;100.00
10806;BME280;5455;53.224;6.000;2023-05-22T01:39:14;101538.81;;;17.00;100.00
10806;BME280;5455;53.224;6.000;2023-05-22T01:41:42;101541.19;;;17.01;100.00
10806;BME280;5455;53.224;6.000;2023-05-22T01:44:09;101545.97;;;17.01;100.00
10806;BME280;5455;53.224;6.000;2023-05-22T01:46:36;101539.19;;;16.98;100.00
10806;BME280;5455;53.224;6.000;2023-05-22T01:49:03;101535.56;;;16.94;100.00
10806;BME280;5455;53.224;6.000;2023-05-22T01:56:47;101530.78;;;16.95;100.00
10806;BME280;5455;53.224;6.000;2023-05-22T01:59:22;101531.53;;;16.85;100.00
10806;BME280;5455;53.224;6.000;2023-05-22T02:01:53;101519.94;;;16.83;100.00
10806;BME280;5455;53.224;6.000;2023-05-22T02:04:21;101517.16;;;16.83;100.00
10806;BME280;5455;53.224;6.000;2023-05-22T02:06:51;101518.00;;;16.87;100.00
10806;BME280;5455;53.224;6.000;2023-05-22T02:09:20;101531.50;;;16.81;100.00
10806;BME280;5455;53.224;6.000;2023-05-22T02:11:49;101535.03;;;16.78;100.00
10806;BME280;5455;53.224;6.000;2023-05-22T02:14:17;101522.69;;;16.76;100.00
10806;BME280;5455;53.224;6.000;2023-05-22T02:16:44;101513.91;;;16.70;100.00
10806;BME280;5455;53.224;6.000;2023-05-22T02:19:13;101517.44;;;16.67;100.00
10806;BME280;5455;53.224;6.000;2023-05-22T02:21:41;101522.97;;;16.64;100.00
10806;BME280;5455;53.224;6.000;2023-05-22T02:24:09;101513.41;;;16.61;100.00
10806;BME280;5455;53.224;6.000;2023-05-22T02:26:36;101511.81;;;16.60;100.00
10806;BME280;5455;53.224;6.000;2023-05-22T02:29:03;101512.94;;;16.56;100.00
10806;BME280;5455;53.224;6.000;2023-05-22T02:31:31;101516.84;;;16.51;100.00
10806;BME280;5455;53.224;6.000;2023-05-22T02:33:58;101520.78;;;16.46;100.00
10806;BME280;5455;53.224;6.000;2023-05-22T02:36:25;101512.81;;;16.45;100.00
10806;BME280;5455;53.224;6.000;2023-05-22T02:38:52;101529.53;;;16.45;100.00
10806;BME280;5455;53.224;6.000;2023-05-22T02:41:21;101523.94;;;16.45;100.00
10806;BME280;5455;53.224;6.000;2023-05-22T02:43:49;101526.34;;;16.46;100.00
10806;BME280;5455;53.224;6.000;2023-05-22T02:46:17;101517.22;;;16.49;100.00
10806;BME280;5455;53.224;6.000;2023-05-22T02:48:45;101521.22;;;16.48;100.00
10806;BME280;5455;53.224;6.000;2023-05-22T02:51:12;101512.06;;;16.48;100.00
10806;BME280;5455;53.224;6.000;2023-05-22T02:53:40;101515.59;;;16.45;100.00
10806;BME280;5455;53.224;6.000;2023-05-22T02:56:08;101520.72;;;16.39;100.00
10806;BME280;5455;53.224;6.000;2023-05-22T02:58:38;101518.31;;;16.38;100.00
10806;BME280;5455;53.224;6.000;2023-05-22T03:01:06;101515.53;;;16.38;100.00
10806;BME280;5455;53.224;6.000;2023-05-22T03:03:35;101525.44;;;16.35;100.00
10806;BME280;5455;53.224;6.000;2023-05-22T03:06:02;101524.59;;;16.31;100.00
10806;BME280;5455;53.224;6.000;2023-05-22T03:08:31;101520.59;;;16.29;100.00
10806;BME280;5455;53.224;6.000;2023-05-22T03:10:59;101523.31;;;16.22;100.00
10806;BME280;5455;53.224;6.000;2023-05-22T03:13:27;101522.47;;;16.18;100.00
10806;BME280;5455;53.224;6.000;2023-05-22T03:15:54;101521.63;;;16.14;100.00
10806;BME280;5455;53.224;6.000;2023-05-22T03:18:21;101523.94;;;16.08;100.00
10806;BME280;5455;53.224;6.000;2023-05-22T03:20:54;101521.56;;;16.07;100.00
10806;BME280;5455;53.224;6.000;2023-05-22T03:23:21;101533.41;;;16.00;100.00
10806;BME280;5455;53.224;6.000;2023-05-22T03:25:51;101532.97;;;15.98;100.00
10806;BME280;5455;53.224;6.000;2023-05-22T03:28:19;101534.09;;;15.93;100.00
10806;BME280;5455;53.224;6.000;2023-05-22T03:30:46;101543.97;;;15.87;100.00
10806;BME280;5455;53.224;6.000;2023-05-22T03:33:22;101539.91;;;15.81;100.00
10806;BME280;5455;53.224;6.000;2023-05-22T03:35:49;101538.28;;;15.80;100.00
10806;BME280;5455;53.224;6.000;2023-05-22T03:38:16;101531.91;;;15.76;100.00
10806;BME280;5455;53.224;6.000;2023-05-22T03:40:43;101531.91;;;15.76;100.00
10806;BME280;5455;53.224;6.000;2023-05-22T03:43:12;101537.81;;;15.75;100.00
10806;BME280;5455;53.224;6.000;2023-05-22T03:45:39;101545.38;;;15.74;100.00
10806;BME280;5455;53.224;6.000;2023-05-22T03:48:06;101542.22;;;15.76;100.00
10806;BME280;5455;53.224;6.000;2023-05-22T03:50:33;101537.03;;;15.74;100.00
10806;BME280;5455;53.224;6.000;2023-05-22T03:53:00;101540.59;;;15.75;100.00
10806;BME280;5455;53.224;6.000;2023-05-22T03:55:29;101538.22;;;15.73;100.00
10806;BME280;5455;53.224;6.000;2023-05-22T03:57:56;101534.69;;;15.76;100.00
10806;BME280;5455;53.224;6.000;2023-05-22T04:00:23;101535.91;;;15.79;100.00
10806;BME280;5455;53.224;6.000;2023-05-22T04:02:52;101540.66;;;15.78;100.00
10806;BME280;5455;53.224;6.000;2023-05-22T04:05:23;101545.06;;;15.79;100.00
10806;BME280;5455;53.224;6.000;2023-05-22T04:07:50;101541.53;;;15.82;100.00
10806;BME280;5455;53.224;6.000;2023-05-22T04:10:17;101551.09;;;15.85;100.00
10806;BME280;5455;53.224;6.000;2023-05-22T04:12:44;101543.19;;;15.90;100.00
10806;BME280;5455;53.224;6.000;2023-05-22T04:15:12;101548.41;;;15.95;100.00
10806;BME280;5455;53.224;6.000;2023-05-22T04:17:40;101545.75;;;16.03;100.00
10806;BME280;5455;53.224;6.000;2023-05-22T04:20:08;101545.41;;;16.08;100.00
10806;BME280;5455;53.224;6.000;2023-05-22T04:22:35;101541.84;;;16.11;100.00
10806;BME280;5455;53.224;6.000;2023-05-22T04:25:02;101542.72;;;16.15;100.00
10806;BME280;5455;53.224;6.000;2023-05-22T04:27:29;101541.91;;;16.14;100.00
10806;BME280;5455;53.224;6.000;2023-05-22T04:29:56;101533.97;;;16.16;100.00
10806;BME280;5455;53.224;6.000;2023-05-22T04:32:25;101533.25;;;16.23;100.00
10806;BME280;5455;53.224;6.000;2023-05-22T04:34:53;101530.50;;;16.26;100.00
10806;BME280;5455;53.224;6.000;2023-05-22T04:37:20;101543.56;;;16.22;100.00
10806;BME280;5455;53.224;6.000;2023-05-22T04:39:47;101562.63;;;16.20;100.00
10806;BME280;5455;53.224;6.000;2023-05-22T04:42:18;101576.97;;;16.22;100.00
10806;BME280;5455;53.224;6.000;2023-05-22T04:44:46;101575.44;;;16.28;100.00
10806;BME280;5455;53.224;6.000;2023-05-22T04:47:14;101579.94;;;16.36;100.00
10806;BME280;5455;53.224;6.000;2023-05-22T04:49:41;101595.88;;;16.39;100.00
10806;BME280;5455;53.224;6.000;2023-05-22T04:52:12;101593.84;;;16.36;100.00
10806;BME280;5455;53.224;6.000;2023-05-22T04:54:40;101603.28;;;16.28;100.00
10806;BME280;5455;53.224;6.000;2023-05-22T04:57:08;101601.56;;;16.17;100.00
10806;BME280;5455;53.224;6.000;2023-05-22T04:59:36;101603.47;;;16.09;100.00
10806;BME280;5455;53.224;6.000;2023-05-22T05:02:07;101607.34;;;16.05;100.00
10806;BME280;5455;53.224;6.000;2023-05-22T05:04:35;101603.34;;;16.02;100.00
10806;BME280;5455;53.224;6.000;2023-05-22T05:07:02;101602.94;;;16.00;100.00
10806;BME280;5455;53.224;6.000;2023-05-22T05:09:31;101611.38;;;16.07;100.00
10806;BME280;5455;53.224;6.000;2023-05-22T05:12:01;101595.88;;;16.06;100.00
10806;BME280;5455;53.224;6.000;2023-05-22T05:14:28;101612.16;;;16.04;100.00
10806;BME280;5455;53.224;6.000;2023-05-22T05:16:55;101607.47;;;16.12;100.00
10806;BME280;5455;53.224;6.000;2023-05-22T05:19:24;101628.31;;;16.25;100.00
10806;BME280;5455;53.224;6.000;2023-05-22T05:21:51;101636.72;;;16.32;100.00
10806;BME280;5455;53.224;6.000;2023-05-22T05:24:20;101636.03;;;16.38;100.00
10806;BME280;5455;53.224;6.000;2023-05-22T05:26:49;101638.44;;;16.40;100.00
10806;BME280;5455;53.224;6.000;2023-05-22T05:29:18;101642.03;;;16.44;100.00
10806;BME280;5455;53.224;6.000;2023-05-22T05:32:03;101638.91;;;16.45;100.00
10806;BME280;5455;53.224;6.000;2023-05-22T05:34:49;101630.28;;;16.54;100.00
10806;BME280;5455;53.224;6.000;2023-05-22T05:37:25;101620.44;;;16.64;100.00
10806;BME280;5455;53.224;6.000;2023-05-22T05:39:55;101620.19;;;16.76;100.00
10806;BME280;5455;53.224;6.000;2023-05-22T05:42:22;101623.44;;;16.85;100.00
10806;BME280;5455;53.224;6.000;2023-05-22T05:44:50;101632.66;;;16.92;100.00
10806;BME280;5455;53.224;6.000;2023-05-22T05:47:17;101637.44;;;16.92;100.00
10806;BME280;5455;53.224;6.000;2023-05-22T05:49:45;101640.56;;;16.87;100.00
10806;BME280;5455;53.224;6.000;2023-05-22T05:52:14;101651.31;;;16.85;100.00
10806;BME280;5455;53.224;6.000;2023-05-22T05:54:41;101662.88;;;16.87;100.00
10806;BME280;5455;53.224;6.000;2023-05-22T05:57:14;101659.53;;;16.74;100.00
10806;BME280;5455;53.224;6.000;2023-05-22T05:59:42;101658.22;;;16.61;100.00
10806;BME280;5455;53.224;6.000;2023-05-22T06:02:18;101666.41;;;16.50;100.00
10806;BME280;5455;53.224;6.000;2023-05-22T06:04:46;101671.41;;;16.38;100.00
10806;BME280;5455;53.224;6.000;2023-05-22T06:07:16;101655.75;;;16.26;100.00
10806;BME280;5455;53.224;6.000;2023-05-22T06:09:45;101636.59;;;16.21;100.00
10806;BME280;5455;53.224;6.000;2023-05-22T06:12:20;101630.09;;;16.10;100.00
10806;BME280;5455;53.224;6.000;2023-05-22T06:14:48;101618.47;;;16.05;100.00
10806;BME280;5455;53.224;6.000;2023-05-22T06:17:15;101623.22;;;16.01;100.00
10806;BME280;5455;53.224;6.000;2023-05-22T06:19:43;101630.75;;;16.00;100.00
10806;BME280;5455;53.224;6.000;2023-05-22T06:22:12;101632.69;;;15.96;100.00
10806;BME280;5455;53.224;6.000;2023-05-22T06:24:41;101651.03;;;16.01;100.00
10806;BME280;5455;53.224;6.000;2023-05-22T06:27:13;101638.19;;;15.92;100.00
10806;BME280;5455;53.224;6.000;2023-05-22T06:29:40;101625.91;;;15.93;100.00
10806;BME280;5455;53.224;6.000;2023-05-22T06:32:08;101623.63;;;16.03;100.00
10806;BME280;5455;53.224;6.000;2023-05-22T06:34:37;101628.44;;;16.06;100.00
10806;BME280;5455;53.224;6.000;2023-05-22T06:37:05;101636.50;;;16.14;100.00
10806;BME280;5455;53.224;6.000;2023-05-22T06:39:38;101627.44;;;16.21;100.00
10806;BME280;5455;53.224;6.000;2023-05-22T06:42:11;101631.56;;;16.30;100.00
10806;BME280;5455;53.224;6.000;2023-05-22T06:44:57;101644.03;;;16.43;100.00
10806;BME280;5455;53.224;6.000;2023-05-22T06:47:32;101641.34;;;16.50;100.00
10806;BME280;5455;53.224;6.000;2023-05-22T06:50:00;101631.53;;;16.60;100.00
10806;BME280;5455;53.224;6.000;2023-05-22T06:52:27;101631.34;;;16.79;100.00
10806;BME280;5455;53.224;6.000;2023-05-22T06:54:55;101641.09;;;16.99;100.00
10806;BME280;5455;53.224;6.000;2023-05-22T06:57:36;101642.06;;;17.18;100.00
10806;BME280;5455;53.224;6.000;2023-05-22T07:00:04;101639.84;;;17.37;100.00
10806;BME280;5455;53.224;6.000;2023-05-22T07:02:56;101645.69;;;17.66;100.00
10806;BME280;5455;53.224;6.000;2023-05-22T07:05:40;101635.41;;;17.80;100.00
10806;BME280;5455;53.224;6.000;2023-05-22T07:08:08;101639.31;;;17.69;100.00
10806;BME280;5455;53.224;6.000;2023-05-22T07:10:36;101635.38;;;17.77;100.00
10806;BME280;5455;53.224;6.000;2023-05-22T07:13:04;101624.69;;;17.86;100.00
10806;BME280;5455;53.224;6.000;2023-05-22T07:15:32;101632.28;;;17.92;100.00
10806;BME280;5455;53.224;6.000;2023-05-22T07:18:02;101637.13;;;18.06;100.00
10806;BME280;5455;53.224;6.000;2023-05-22T07:20:29;101641.94;;;18.05;100.00
10806;BME280;5455;53.224;6.000;2023-05-22T07:23:06;101638.75;;;18.07;100.00
10806;BME280;5455;53.224;6.000;2023-05-22T07:25:36;101631.94;;;18.01;100.00
10806;BME280;5455;53.224;6.000;2023-05-22T07:28:04;101640.84;;;18.28;100.00
10806;BME280;5455;53.224;6.000;2023-05-22T07:30:42;101642.44;;;18.25;100.00
10806;BME280;5455;53.224;6.000;2023-05-22T07:33:09;101640.81;;;18.24;100.00
10806;BME280;5455;53.224;6.000;2023-05-22T07:35:37;101646.03;;;18.29;100.00
10806;BME280;5455;53.224;6.000;2023-05-22T07:38:05;101646.78;;;18.19;100.00
10806;BME280;5455;53.224;6.000;2023-05-22T07:40:32;101647.59;;;18.20;100.00
10806;BME280;5455;53.224;6.000;2023-05-22T07:43:00;101642.28;;;18.00;100.00
10806;BME280;5455;53.224;6.000;2023-05-22T07:45:27;101644.28;;;18.00;100.00
10806;BME280;5455;53.224;6.000;2023-05-22T07:47:57;101655.91;;;18.12;100.00
10806;BME280;5455;53.224;6.000;2023-05-22T07:50:25;101661.88;;;18.07;100.00
10806;BME280;5455;53.224;6.000;2023-05-22T07:52:52;101660.69;;;18.12;100.00
10806;BME280;5455;53.224;6.000;2023-05-22T07:55:21;101660.28;;;18.06;100.00
10806;BME280;5455;53.224;6.000;2023-05-22T07:57:49;101663.97;;;18.25;100.00
10806;BME280;5455;53.224;6.000;2023-05-22T08:00:25;101667.50;;;18.11;100.00
10806;BME280;5455;53.224;6.000;2023-05-22T08:02:52;101653.56;;;18.22;100.00
10806;BME280;5455;53.224;6.000;2023-05-22T08:05:20;101651.19;;;18.20;100.00
10806;BME280;5455;53.224;6.000;2023-05-22T08:07:47;101638.41;;;18.19;100.00
10806;BME280;5455;53.224;6.000;2023-05-22T08:10:17;101643.25;;;18.36;100.00
10806;BME280;5455;53.224;6.000;2023-05-22T08:12:44;101642.03;;;18.23;100.00
10806;BME280;5455;53.224;6.000;2023-05-22T08:15:11;101645.19;;;18.18;100.00
10806;BME280;5455;53.224;6.000;2023-05-22T08:17:38;101647.22;;;18.25;100.00
10806;BME280;5455;53.224;6.000;2023-05-22T08:20:06;101640.78;;;18.21;100.00
10806;BME280;5455;53.224;6.000;2023-05-22T08:22:37;101641.28;;;18.40;100.00
10806;BME280;5455;53.224;6.000;2023-05-22T08:25:04;101639.25;;;18.30;100.00
10806;BME280;5455;53.224;6.000;2023-05-22T08:27:32;101630.44;;;18.25;100.00
10806;BME280;5455;53.224;6.000;2023-05-22T08:30:01;101634.94;;;18.47;100.00
10806;BME280;5455;53.224;6.000;2023-05-22T08:32:29;101631.41;;;18.50;100.00
10806;BME280;5455;53.224;6.000;2023-05-22T08:34:57;101628.63;;;18.60;100.00
10806;BME280;5455;53.224;6.000;2023-05-22T08:37:25;101629.00;;;18.55;100.00
10806;BME280;5455;53.224;6.000;2023-05-22T08:39:52;101623.03;;;18.53;100.00
10806;BME280;5455;53.224;6.000;2023-05-22T08:42:19;101614.25;;;18.55;100.00
10806;BME280;5455;53.224;6.000;2023-05-22T08:44:47;101607.88;;;18.58;100.00
10806;BME280;5455;53.224;6.000;2023-05-22T08:47:15;101597.88;;;18.60;100.00
10806;BME280;5455;53.224;6.000;2023-05-22T08:49:42;101601.09;;;18.69;100.00
10806;BME280;5455;53.224;6.000;2023-05-22T08:52:12;101595.56;;;18.94;100.00
10806;BME280;5455;53.224;6.000;2023-05-22T08:54:41;101601.56;;;19.10;100.00
10806;BME280;5455;53.224;6.000;2023-05-22T08:57:09;101608.34;;;19.13;100.00
10806;BME280;5455;53.224;6.000;2023-05-22T08:59:38;101598.34;;;19.37;100.00
10806;BME280;5455;53.224;6.000;2023-05-22T09:02:05;101599.56;;;19.67;100.00
10806;BME280;5455;53.224;6.000;2023-05-22T09:04:33;101603.38;;;20.16;100.00
10806;BME280;5455;53.224;6.000;2023-05-22T09:07:01;101609.38;;;20.28;100.00
10806;BME280;5455;53.224;6.000;2023-05-22T09:09:40;101605.00;;;20.13;100.00
10806;BME280;5455;53.224;6.000;2023-05-22T09:12:09;101609.03;;;20.09;100.00
10806;BME280;5455;53.224;6.000;2023-05-22T09:14:40;101604.69;;;19.94;100.00
10806;BME280;5455;53.224;6.000;2023-05-22T09:17:09;101610.28;;;19.83;100.00
10806;BME280;5455;53.224;6.000;2023-05-22T09:19:43;101603.16;;;19.64;100.00
10806;BME280;5455;53.224;6.000;2023-05-22T09:22:12;101605.53;;;19.73;100.00
10806;BME280;5455;53.224;6.000;2023-05-22T09:24:40;101601.56;;;19.63;100.00
10806;BME280;5455;53.224;6.000;2023-05-22T09:27:10;101600.38;;;19.43;100.00
10806;BME280;5455;53.224;6.000;2023-05-22T09:29:51;101600.75;;;19.38;100.00
10806;BME280;5455;53.224;6.000;2023-05-22T09:32:18;101594.72;;;19.71;100.00
10806;BME280;5455;53.224;6.000;2023-05-22T09:34:46;101587.88;;;19.97;100.00
10806;BME280;5455;53.224;6.000;2023-05-22T09:37:14;101582.59;;;20.13;100.00
10806;BME280;5455;53.224;6.000;2023-05-22T09:39:46;101566.53;;;20.31;100.00
10806;BME280;5455;53.224;6.000;2023-05-22T09:42:14;101567.22;;;20.53;100.00
10806;BME280;5455;53.224;6.000;2023-05-22T09:44:50;101569.84;;;20.81;100.00
10806;BME280;5455;53.224;6.000;2023-05-22T09:47:17;101563.53;;;20.67;100.00
10806;BME280;5455;53.224;6.000;2023-05-22T09:49:44;101573.22;;;21.14;100.00
10806;BME280;5455;53.224;6.000;2023-05-22T09:52:11;101559.56;;;21.16;100.00
10806;BME280;5455;53.224;6.000;2023-05-22T09:54:44;101562.50;;;21.42;100.00
10806;BME280;5455;53.224;6.000;2023-05-22T09:57:16;101562.50;;;21.42;100.00
10806;BME280;5455;53.224;6.000;2023-05-22T09:59:50;101560.13;;;21.41;100.00
10806;BME280;5455;53.224;6.000;2023-05-22T10:02:21;101543.69;;;21.39;100.00
10806;BME280;5455;53.224;6.000;2023-05-22T10:04:49;101541.59;;;21.51;100.00
10806;BME280;5455;53.224;6.000;2023-05-22T10:07:31;101532.13;;;21.75;100.00
10806;BME280;5455;53.224;6.000;2023-05-22T10:10:06;101531.38;;;21.67;100.00
10806;BME280;5455;53.224;6.000;2023-05-22T10:12:49;101540.03;;;21.83;100.00
10806;BME280;5455;53.224;6.000;2023-05-22T10:15:17;101537.28;;;22.14;100.00
10806;BME280;5455;53.224;6.000;2023-05-22T10:17:46;101545.44;;;22.31;100.00
10806;BME280;5455;53.224;6.000;2023-05-22T10:20:14;101546.59;;;22.07;100.00
10806;BME280;5455;53.224;6.000;2023-05-22T10:22:42;101557.69;;;22.14;100.00
10806;BME280;5455;53.224;6.000;2023-05-22T10:25:09;101563.59;;;22.23;100.00
10806;BME280;5455;53.224;6.000;2023-05-22T10:27:37;101560.41;;;22.51;100.00
10806;BME280;5455;53.224;6.000;2023-05-22T10:33:37;101564.88;;;22.49;100.00
10806;BME280;5455;53.224;6.000;2023-05-22T10:36:15;101563.44;;;22.37;100.00
10806;BME280;5455;53.224;6.000;2023-05-22T10:41:39;101556.28;;;21.99;100.00
10806;BME280;5455;53.224;6.000;2023-05-22T10:44:06;101560.41;;;21.91;100.00
10806;BME280;5455;53.224;6.000;2023-05-22T10:46:32;101561.88;;;21.65;100.00
10806;BME280;5455;53.224;6.000;2023-05-22T10:49:00;101563.03;;;22.05;100.00
10806;BME280;5455;53.224;6.000;2023-05-22T10:51:27;101570.97;;;22.14;100.00
10806;BME280;5455;53.224;6.000;2023-05-22T10:53:58;101572.81;;;21.93;100.00
10806;BME280;5455;53.224;6.000;2023-05-22T10:56:34;101575.94;;;21.99;100.00
10806;BME280;5455;53.224;6.000;2023-05-22T10:59:03;101584.13;;;21.90;100.00
10806;BME280;5455;53.224;6.000;2023-05-22T11:01:31;101582.78;;;21.61;100.00
10806;BME280;5455;53.224;6.000;2023-05-22T11:04:12;101580.25;;;21.32;100.00
10806;BME280;5455;53.224;6.000;2023-05-22T11:06:46;101592.56;;;21.42;100.00
10806;BME280;5455;53.224;6.000;2023-05-22T11:12:45;101593.75;;;21.89;100.00
10806;BME280;5455;53.224;6.000;2023-05-22T11:15:06;101595.63;;;21.99;100.00
10806;BME280;5455;53.224;6.000;2023-05-22T11:17:41;101582.28;;;21.69;100.00
10806;BME280;5455;53.224;6.000;2023-05-22T11:20:12;101593.47;;;22.14;100.00
10806;BME280;5455;53.224;6.000;2023-05-22T11:22:55;101593.66;;;22.26;100.00
10806;BME280;5455;53.224;6.000;2023-05-22T11:25:23;101600.19;;;21.82;100.00
10806;BME280;5455;53.224;6.000;2023-05-22T11:27:52;101585.16;;;21.66;100.00
10806;BME280;5455;53.224;6.000;2023-05-22T11:30:20;101589.66;;;21.56;100.00
10806;BME280;5455;53.224;6.000;2023-05-22T11:32:50;101592.41;;;21.19;100.00
10806;BME280;5455;53.224;6.000;2023-05-22T11:35:19;101595.03;;;20.85;100.00
10806;BME280;5455;53.224;6.000;2023-05-22T11:37:47;101595.13;;;21.29;100.00
10806;BME280;5455;53.224;6.000;2023-05-22T11:40:16;101596.09;;;21.53;100.00
10806;BME280;5455;53.224;6.000;2023-05-22T11:42:44;101605.63;;;21.63;100.00
10806;BME280;5455;53.224;6.000;2023-05-22T11:45:12;101604.59;;;21.46;100.00
10806;BME280;5455;53.224;6.000;2023-05-22T11:47:39;101594.34;;;21.25;100.00
10806;BME280;5455;53.224;6.000;2023-05-22T11:50:08;101592.94;;;21.00;100.00
10806;BME280;5455;53.224;6.000;2023-05-22T11:52:37;101599.66;;;21.13;100.00
10806;BME280;5455;53.224;6.000;2023-05-22T11:55:06;101600.94;;;21.01;100.00
10806;BME280;5455;53.224;6.000;2023-05-22T11:57:35;101598.69;;;20.78;100.00
10806;BME280;5455;53.224;6.000;2023-05-22T12:00:04;101594.50;;;21.04;100.00
10806;BME280;5455;53.224;6.000;2023-05-22T12:02:37;101601.66;;;21.12;100.00
10806;BME280;5455;53.224;6.000;2023-05-22T12:05:05;101602.19;;;20.97;100.00
10806;BME280;5455;53.224;6.000;2023-05-22T12:07:35;101607.59;;;20.66;100.00
10806;BME280;5455;53.224;6.000;2023-05-22T12:10:04;101603.63;;;20.60;100.00
10806;BME280;5455;53.224;6.000;2023-05-22T12:12:33;101610.75;;;20.68;100.00
10806;BME280;5455;53.224;6.000;2023-05-22T12:15:00;101611.59;;;20.65;100.00
10806;BME280;5455;53.224;6.000;2023-05-22T12:17:31;101600.72;;;20.74;100.00
10806;BME280;5455;53.224;6.000;2023-05-22T12:19:58;101597.41;;;20.90;100.00
10806;BME280;5455;53.224;6.000;2023-05-22T12:22:25;101607.34;;;20.98;100.00
10806;BME280;5455;53.224;6.000;2023-05-22T12:24:55;101595.78;;;20.93;100.00
10806;BME280;5455;53.224;6.000;2023-05-22T12:27:22;101603.06;;;20.79;100.00
10806;BME280;5455;53.224;6.000;2023-05-22T12:29:50;101609.25;;;20.50;100.00
10806;BME280;5455;53.224;6.000;2023-05-22T12:32:20;101608.16;;;20.33;100.00
10806;BME280;5455;53.224;6.000;2023-05-22T12:34:48;101604.19;;;20.27;100.00
10806;BME280;5455;53.224;6.000;2023-05-22T12:37:17;101600.88;;;20.46;100.00
10806;BME280;5455;53.224;6.000;2023-05-22T12:39:54;101599.56;;;20.65;100.00
10806;BME280;5455;53.224;6.000;2023-05-22T12:42:23;101602.44;;;20.54;100.00
10806;BME280;5455;53.224;6.000;2023-05-22T12:44:52;101607.72;;;20.38;100.00
10806;BME280;5455;53.224;6.000;2023-05-22T12:47:19;101601.66;;;20.54;100.00
10806;BME280;5455;53.224;6.000;2023-05-22T12:49:47;101607.22;;;20.61;100.00
10806;BME280;5455;53.224;6.000;2023-05-22T12:52:14;101602.38;;;20.65;100.00
10806;BME280;5455;53.224;6.000;2023-05-22T12:54:41;101612.81;;;20.61;100.00
10806;BME280;5455;53.224;6.000;2023-05-22T12:57:08;101601.84;;;20.84;100.00
10806;BME280;5455;53.224;6.000;2023-05-22T12:59:36;101605.84;;;20.86;100.00
10806;BME280;5455;53.224;6.000;2023-05-22T13:02:04;101610.13;;;21.02;100.00
10806;BME280;5455;53.224;6.000;2023-05-22T13:04:31;101619.81;;;20.94;100.00
10806;BME280;5455;53.224;6.000;2023-05-22T13:06:59;101615.91;;;20.80;100.00
10806;BME280;5455;53.224;6.000;2023-05-22T13:09:26;101621.47;;;20.87;100.00
10806;BME280;5455;53.224;6.000;2023-05-22T13:11:54;101622.91;;;21.10;100.00
10806;BME280;5455;53.224;6.000;2023-05-22T13:14:21;101632.47;;;21.19;100.00
10806;BME280;5455;53.224;6.000;2023-05-22T13:16:48;101621.47;;;20.84;100.00
10806;BME280;5455;53.224;6.000;2023-05-22T13:19:15;101624.66;;;20.89;100.00
10806;BME280;5455;53.224;6.000;2023-05-22T13:21:42;101621.19;;;20.64;100.00